Time;durP1;ratioP1;P1;durP2;ratioP2;P2;SDS_P1;SDS_P2;PMS_P1;PMS_P2;Temp;Humidity;BMP_temperature;BMP_pressure;BME280_temperature;BME280_humidity;BME280_pressure;Samples;Min_cycle;Max_cycle;Signal;HPM_P1;HPM_P2
2022/05/05 00:01:34;;;;;;;2.47;0.93;;;;;;;4.65;100.00;101439.38;5153799;27;20026;-46
2022/05/05 00:04:00;;;;;;;0.98;0.98;;;;;;;4.68;100.00;101439.94;5163858;27;20099;-48
2022/05/05 00:06:26;;;;;;;1.30;1.10;;;;;;;4.66;100.00;101435.78;5165349;27;20526;-49
2022/05/05 00:08:51;;;;;;;1.15;1.05;;;;;;;4.64;100.00;101441.16;5141498;27;20424;-48
2022/05/05 00:16:45;;;;;;;1.10;0.93;;;;;;;4.51;100.00;101443.13;5161335;27;20041;-49
2022/05/05 00:19:10;;;;;;;3.67;1.48;;;;;;;4.49;100.00;101447.69;5135227;27;20035;-48
2022/05/05 00:21:38;;;;;;;1.70;1.60;;;;;;;4.45;100.00;101448.91;5155015;27;20026;-49
2022/05/05 00:24:05;;;;;;;1.10;1.00;;;;;;;4.47;100.00;101442.56;5163725;27;20095;-48
2022/05/05 00:26:30;;;;;;;1.67;1.58;;;;;;;4.47;100.00;101447.81;5162955;27;20018;-48
2022/05/05 00:28:55;;;;;;;1.10;1.02;;;;;;;4.45;100.00;101444.50;5167409;27;20045;-51
2022/05/05 00:31:21;;;;;;;1.48;1.10;;;;;;;4.38;100.00;101444.16;5169458;27;20041;-50
2022/05/05 00:33:46;;;;;;;1.52;0.88;;;;;;;4.29;100.00;101449.34;5159479;27;20053;-47
2022/05/05 00:36:11;;;;;;;1.23;1.17;;;;;;;4.24;100.00;101454.97;5168004;27;20030;-46
2022/05/05 00:38:37;;;;;;;1.27;1.10;;;;;;;4.12;100.00;101453.34;5168355;27;20394;-46
2022/05/05 00:41:02;;;;;;;2.65;1.42;;;;;;;4.03;100.00;101447.06;5158026;27;20030;-48
2022/05/05 00:43:30;;;;;;;1.80;1.33;;;;;;;4.01;100.00;101459.47;5166041;27;20026;-49
2022/05/05 00:45:55;;;;;;;3.15;1.27;;;;;;;3.93;100.00;101454.84;5165708;27;20094;-46
2022/05/05 00:48:24;;;;;;;1.13;0.80;;;;;;;3.89;100.00;101457.84;5160734;27;20023;-48
2022/05/05 00:50:50;;;;;;;0.93;0.93;;;;;;;3.89;100.00;101457.84;5164740;27;20398;-46
2022/05/05 00:53:15;;;;;;;0.77;0.75;;;;;;;3.82;100.00;101461.91;5166256;27;20038;-50
2022/05/05 00:55:40;;;;;;;1.58;0.95;;;;;;;3.74;100.00;101457.25;5162034;27;20063;-49
2022/05/05 00:58:06;;;;;;;1.02;1.02;;;;;;;3.67;100.00;101464.81;5163122;27;20042;-47
2022/05/05 01:00:33;;;;;;;1.17;1.10;;;;;;;3.64;100.00;101461.56;5150688;27;20050;-48
2022/05/05 01:03:00;;;;;;;1.17;1.17;;;;;;;3.60;100.00;101466.25;5166727;27;20034;-50
2022/05/05 01:05:30;;;;;;;0.93;0.77;;;;;;;3.60;100.00;101466.25;5165683;27;20647;-48
2022/05/05 01:07:56;;;;;;;0.98;0.98;;;;;;;3.54;100.00;101466.75;5163619;27;20071;-47
2022/05/05 01:10:22;;;;;;;1.05;0.75;;;;;;;3.49;100.00;101466.25;5154523;27;20034;-47
2022/05/05 01:12:48;;;;;;;1.17;0.57;;;;;;;3.40;100.00;101472.22;5160931;27;20069;-46
2022/05/05 01:15:13;;;;;;;1.58;1.40;;;;;;;3.32;100.00;101472.81;5152599;27;20281;-47
2022/05/05 01:17:39;;;;;;;2.10;1.33;;;;;;;3.28;100.00;101474.84;5163177;27;20418;-47
2022/05/05 01:20:15;;;;;;;1.42;1.23;;;;;;;3.26;100.00;101474.13;5155444;27;20110;-46
2022/05/05 01:22:41;;;;;;;1.15;1.08;;;;;;;3.24;100.00;101477.81;5153184;27;20023;-47
2022/05/05 01:30:35;;;;;;;1.65;0.70;;;;;;;3.15;100.00;101474.16;5169929;27;20450;-50
2022/05/05 01:33:00;;;;;;;1.83;1.52;;;;;;;3.13;100.00;101476.03;5160265;27;20106;-48
2022/05/05 01:35:26;;;;;;;1.50;1.40;;;;;;;3.10;100.00;101468.41;5162639;27;20042;-51
2022/05/05 01:37:51;;;;;;;1.75;1.63;;;;;;;3.07;100.00;101473.88;5171232;27;20035;-51
2022/05/05 01:40:17;;;;;;;2.97;1.40;;;;;;;3.00;100.00;101475.31;5166451;27;20022;-46
2022/05/05 01:42:43;;;;;;;1.23;0.88;;;;;;;2.90;100.00;101474.34;5169545;27;20086;-48
2022/05/05 01:45:09;;;;;;;2.13;1.92;;;;;;;2.79;100.00;101472.56;5162723;27;20018;-49
2022/05/05 01:47:36;;;;;;;1.05;0.93;;;;;;;2.75;100.00;101477.16;5167660;27;20033;-49
2022/05/05 01:50:02;;;;;;;1.50;1.30;;;;;;;2.75;100.00;101477.16;5172303;27;20075;-46
2022/05/05 01:52:28;;;;;;;1.73;1.10;;;;;;;2.74;100.00;101475.50;5170286;27;20030;-48
2022/05/05 01:54:53;;;;;;;2.17;1.42;;;;;;;2.66;100.00;101477.03;5170881;27;20030;-47
2022/05/05 01:57:18;;;;;;;1.10;1.00;;;;;;;2.59;100.00;101476.66;5163263;27;20027;-47
2022/05/05 01:59:44;;;;;;;1.45;0.93;;;;;;;2.55;100.00;101476.03;5159298;27;20022;-53
2022/05/05 02:02:09;;;;;;;1.33;1.20;;;;;;;2.53;100.00;101477.09;5165831;27;20041;-51
2022/05/05 02:04:35;;;;;;;1.83;1.73;;;;;;;2.50;100.00;101480.78;5168472;27;20055;-48
2022/05/05 02:07:00;;;;;;;2.78;1.55;;;;;;;2.50;100.00;101491.25;5152332;27;20033;-52
2022/05/05 02:09:25;;;;;;;1.90;1.10;;;;;;;2.46;100.00;101489.00;5169334;27;20127;-47
2022/05/05 02:11:53;;;;;;;1.55;1.13;;;;;;;2.39;100.00;101493.84;5171306;27;20390;-47
2022/05/05 02:14:18;;;;;;;2.05;1.05;;;;;;;2.32;100.00;101498.72;5171363;27;20478;-47
2022/05/05 02:16:44;;;;;;;1.13;1.00;;;;;;;2.29;100.00;101500.69;5133511;27;20022;-52
2022/05/05 02:19:09;;;;;;;1.80;1.45;;;;;;;2.24;100.00;101501.03;5158747;27;20038;-52
2022/05/05 02:21:34;;;;;;;2.05;1.08;;;;;;;2.21;100.00;101497.81;5165448;27;20110;-51
2022/05/05 02:24:00;;;;;;;8.02;1.92;;;;;;;2.19;100.00;101500.53;5170441;27;20117;-49
2022/05/05 02:26:25;;;;;;;1.67;1.35;;;;;;;2.13;100.00;101500.97;5148021;27;20117;-51
2022/05/05 02:28:50;;;;;;;1.15;0.98;;;;;;;2.09;100.00;101497.75;5160339;27;20046;-49
2022/05/05 02:31:16;;;;;;;1.52;1.30;;;;;;;2.09;100.00;101505.63;5168137;27;20030;-49
2022/05/05 02:33:41;;;;;;;3.15;1.52;;;;;;;2.08;100.00;101500.47;5165235;27;20055;-47
2022/05/05 02:38:51;;;;;;;1.13;0.70;;;;;;;1.99;100.00;101503.75;5171334;27;20045;-46
2022/05/05 02:41:17;;;;;;;1.48;1.38;;;;;;;1.97;100.00;101506.50;5171483;27;20034;-47
2022/05/05 02:43:42;;;;;;;2.05;1.35;;;;;;;1.98;100.00;101507.31;5172389;27;20033;-50
2022/05/05 02:46:08;;;;;;;1.85;1.55;;;;;;;1.96;100.00;101504.81;5170833;27;20399;-48
2022/05/05 02:48:33;;;;;;;1.63;1.50;;;;;;;1.96;100.00;101510.88;5166914;27;20040;-49
2022/05/05 02:50:58;;;;;;;1.60;1.40;;;;;;;2.07;100.00;101522.38;5172004;27;20062;-49
2022/05/05 02:56:08;;;;;;;1.73;1.52;;;;;;;2.21;100.00;101503.88;5171104;27;20114;-48
2022/05/05 02:58:33;;;;;;;2.30;1.63;;;;;;;2.26;100.00;101501.75;5168416;27;20476;-48
2022/05/05 03:00:58;;;;;;;2.63;0.80;;;;;;;2.25;100.00;101502.72;5159211;27;20031;-47
2022/05/05 03:03:24;;;;;;;2.80;1.67;;;;;;;2.25;100.00;101504.50;5150983;27;20129;-46
2022/05/05 03:05:49;;;;;;;2.42;1.60;;;;;;;2.18;100.00;101504.94;5164813;27;20030;-46
2022/05/05 03:08:14;;;;;;;2.10;1.50;;;;;;;2.10;100.00;101502.03;5159833;27;20087;-50
2022/05/05 03:10:40;;;;;;;1.55;1.45;;;;;;;2.01;100.00;101507.09;5162949;27;20026;-46
2022/05/05 03:13:06;;;;;;;3.40;1.42;;;;;;;1.94;100.00;101507.53;5171715;27;20045;-48
2022/05/05 03:15:31;;;;;;;1.90;1.42;;;;;;;1.89;100.00;101503.59;5163224;27;20034;-52
2022/05/05 03:17:57;;;;;;;1.00;0.88;;;;;;;1.84;100.00;101498.69;5161289;27;20034;-47
2022/05/05 03:20:22;;;;;;;2.70;1.42;;;;;;;1.83;100.00;101504.00;5170785;27;20030;-48
2022/05/05 03:22:48;;;;;;;1.45;1.02;;;;;;;1.82;100.00;101502.34;5155041;27;20058;-46
2022/05/05 03:25:13;;;;;;;1.90;1.55;;;;;;;1.85;100.00;101508.19;5159394;27;20022;-51
2022/05/05 03:27:39;;;;;;;2.30;2.10;;;;;;;1.89;100.00;101514.88;5169312;27;20371;-46
2022/05/05 03:30:05;;;;;;;4.50;1.80;;;;;;;1.85;100.00;101515.19;5163162;27;20453;-50
2022/05/05 03:32:32;;;;;;;2.08;1.35;;;;;;;1.77;100.00;101509.69;5156584;27;20038;-47
2022/05/05 03:34:58;;;;;;;2.03;1.48;;;;;;;1.72;100.00;101513.44;5171107;27;20485;-47
2022/05/05 03:37:27;;;;;;;2.13;1.58;;;;;;;1.69;100.00;101521.50;5168117;27;20028;-51
2022/05/05 03:39:53;;;;;;;4.15;1.30;;;;;;;1.70;100.00;101523.22;5170301;27;20118;-50
2022/05/05 03:42:18;;;;;;;1.08;0.60;;;;;;;1.69;100.00;101518.91;5170386;27;20477;-47
2022/05/05 03:44:43;;;;;;;1.48;1.27;;;;;;;1.68;100.00;101519.03;5169720;27;20056;-48
2022/05/05 03:47:08;;;;;;;1.15;1.02;;;;;;;1.64;100.00;101526.22;5169793;27;20030;-47
2022/05/05 03:49:34;;;;;;;2.50;1.42;;;;;;;1.59;100.00;101519.66;5170996;27;20033;-49
2022/05/05 03:51:59;;;;;;;1.20;1.10;;;;;;;1.52;100.00;101522.72;5170699;27;20046;-50
2022/05/05 03:54:25;;;;;;;2.28;1.98;;;;;;;1.51;100.00;101522.81;5151654;27;20037;-49
2022/05/05 03:56:50;;;;;;;2.40;1.92;;;;;;;1.49;100.00;101522.91;5169310;27;20158;-49
2022/05/05 03:59:15;;;;;;;3.55;2.35;;;;;;;1.50;100.00;101531.59;5170083;27;20024;-52
2022/05/05 04:01:41;;;;;;;2.00;1.65;;;;;;;1.49;100.00;101537.75;5151109;27;20087;-49
2022/05/05 04:04:06;;;;;;;2.05;1.50;;;;;;;1.52;100.00;101535.78;5170778;27;20030;-49
2022/05/05 04:06:32;;;;;;;5.28;2.42;;;;;;;1.55;100.00;101536.50;5164402;27;20041;-51
2022/05/05 04:08:58;;;;;;;2.15;1.75;;;;;;;1.47;100.00;101537.88;5155339;27;20532;-48
2022/05/05 04:11:23;;;;;;;2.58;1.48;;;;;;;1.39;100.00;101536.72;5152005;27;20031;-47
2022/05/05 04:13:49;;;;;;;3.80;1.80;;;;;;;1.34;100.00;101538.81;5167433;27;20030;-54
2022/05/05 04:16:15;;;;;;;2.75;1.38;;;;;;;1.27;100.00;101538.41;5135252;27;20442;-51
2022/05/05 04:18:40;;;;;;;1.30;1.20;;;;;;;1.24;100.00;101543.81;5167014;27;20031;-51
2022/05/05 04:21:05;;;;;;;2.55;1.35;;;;;;;1.20;100.00;101540.59;5168456;27;20030;-48
2022/05/05 04:23:31;;;;;;;1.25;0.95;;;;;;;1.17;100.00;101542.59;5146930;27;20033;-48
2022/05/05 04:25:57;;;;;;;2.78;1.40;;;;;;;1.13;100.00;101547.16;5170699;27;20031;-50
2022/05/05 04:28:23;;;;;;;1.90;1.67;;;;;;;1.09;100.00;101546.53;5169441;27;20059;-47
2022/05/05 04:30:49;;;;;;;3.15;1.83;;;;;;;1.10;100.00;101550.00;5136308;27;20045;-50
2022/05/05 04:33:14;;;;;;;2.03;1.50;;;;;;;1.08;100.00;101552.72;5169422;27;20043;-49
2022/05/05 04:35:39;;;;;;;2.30;1.30;;;;;;;1.06;100.00;101565.03;5161310;27;20034;-48
2022/05/05 04:38:05;;;;;;;3.58;2.40;;;;;;;1.07;100.00;101561.47;5131033;27;20091;-47
2022/05/05 04:40:31;;;;;;;4.60;1.70;;;;;;;1.11;100.00;101574.31;5154131;27;20039;-47
2022/05/05 04:42:57;;;;;;;5.00;1.95;;;;;;;1.12;100.00;101568.19;5148270;27;20019;-46
2022/05/05 04:45:22;;;;;;;2.83;2.13;;;;;;;1.11;100.00;101572.56;5149991;27;20035;-47
2022/05/05 04:47:47;;;;;;;1.27;0.90;;;;;;;1.11;100.00;101575.19;5150033;27;20379;-48
2022/05/05 04:50:14;;;;;;;1.70;1.60;;;;;;;1.10;100.00;101570.88;5163557;27;20065;-46
2022/05/05 04:52:39;;;;;;;2.58;2.08;;;;;;;1.11;100.00;101574.31;5149021;27;20083;-47
2022/05/05 04:55:05;;;;;;;2.40;1.92;;;;;;;1.14;100.00;101574.97;5157559;27;20022;-51
2022/05/05 04:57:30;;;;;;;2.58;2.00;;;;;;;1.18;100.00;101580.81;5151932;27;20038;-47
2022/05/05 04:59:55;;;;;;;3.78;2.33;;;;;;;1.19;100.00;101578.13;5155201;27;20474;-48
2022/05/05 05:02:21;;;;;;;5.00;1.95;;;;;;;1.27;100.00;101580.22;5155328;27;20027;-46
2022/05/05 05:04:46;;;;;;;5.85;1.85;;;;;;;1.29;100.00;101578.31;5150938;27;20031;-48
2022/05/05 05:07:12;;;;;;;5.35;2.25;;;;;;;1.28;100.00;101581.88;5155831;27;20038;-48
2022/05/05 05:09:37;;;;;;;3.03;2.25;;;;;;;1.28;100.00;101587.94;5156872;27;20022;-48
2022/05/05 05:12:03;;;;;;;4.38;2.95;;;;;;;1.32;100.00;101591.19;5151656;27;20031;-48
2022/05/05 05:14:28;;;;;;;2.53;1.65;;;;;;;1.35;100.00;101595.38;5152454;27;20031;-51
2022/05/05 05:16:54;;;;;;;4.80;2.25;;;;;;;1.38;100.00;101593.38;5154124;27;20022;-46
2022/05/05 05:19:19;;;;;;;1.85;1.52;;;;;;;1.40;100.00;101591.50;5164984;27;20061;-49
2022/05/05 05:21:46;;;;;;;2.72;1.77;;;;;;;1.43;100.00;101590.47;5139007;27;20496;-47
2022/05/05 05:24:12;;;;;;;7.50;1.88;;;;;;;1.49;100.00;101598.69;5144707;27;20040;-49
2022/05/05 05:26:37;;;;;;;1.38;1.27;;;;;;;1.57;100.00;101594.72;5154868;27;20042;-48
2022/05/05 05:29:03;;;;;;;3.63;2.33;;;;;;;1.62;100.00;101596.09;5170181;27;20185;-46
2022/05/05 05:31:28;;;;;;;2.40;1.92;;;;;;;1.70;100.00;101596.41;5169024;27;20038;-48
2022/05/05 05:33:54;;;;;;;3.30;1.95;;;;;;;1.77;100.00;101609.06;5156799;27;20083;-49
2022/05/05 05:36:19;;;;;;;3.33;2.33;;;;;;;1.82;100.00;101612.19;5169511;27;20030;-49
2022/05/05 05:38:45;;;;;;;3.03;2.17;;;;;;;1.88;100.00;101612.59;5166709;27;20063;-49
2022/05/05 05:41:10;;;;;;;2.13;1.67;;;;;;;1.98;100.00;101609.34;5171022;27;20450;-47
2022/05/05 05:43:35;;;;;;;3.15;2.05;;;;;;;2.02;100.00;101621.28;5164876;27;20038;-51
2022/05/05 05:46:01;;;;;;;1.85;1.65;;;;;;;2.10;100.00;101616.34;5163831;27;20401;-50
2022/05/05 05:48:26;;;;;;;6.13;2.53;;;;;;;2.15;100.00;101622.06;5157639;27;20354;-49
2022/05/05 05:50:51;;;;;;;6.70;2.03;;;;;;;2.27;100.00;101625.59;5142104;27;20372;-52
2022/05/05 05:53:17;;;;;;;2.97;2.05;;;;;;;2.31;100.00;101633.13;5156254;27;20030;-48
2022/05/05 05:55:42;;;;;;;4.47;3.28;;;;;;;2.44;100.00;101629.63;5158706;27;20109;-51
2022/05/05 05:58:07;;;;;;;3.08;2.03;;;;;;;2.61;100.00;101637.94;5137756;27;20506;-49
2022/05/05 06:00:33;;;;;;;3.95;2.58;;;;;;;2.76;100.00;101641.25;5158828;27;20058;-48
2022/05/05 06:05:45;;;;;;;3.38;1.73;;;;;;;2.90;100.00;101636.78;5165924;27;20039;-50
2022/05/05 06:08:11;;;;;;;3.30;2.05;;;;;;;2.99;100.00;101634.28;5153466;27;20495;-49
2022/05/05 06:10:36;;;;;;;2.67;1.45;;;;;;;3.11;100.00;101645.66;5137110;27;20026;-47
2022/05/05 06:13:02;;;;;;;3.50;2.72;;;;;;;3.33;100.00;101642.28;5158162;27;20026;-53
2022/05/05 06:15:28;;;;;;;7.53;2.75;;;;;;;3.49;100.00;101640.16;5161370;27;20457;-48
2022/05/05 06:17:53;;;;;;;6.15;3.03;;;;;;;3.64;100.00;101638.16;5158362;27;20078;-47
2022/05/05 06:20:19;;;;;;;5.30;2.78;;;;;;;3.81;100.00;101636.03;5163204;27;20122;-51
2022/05/05 06:22:45;;;;;;;3.70;3.28;;;;;;;3.97;100.00;101644.38;5158517;27;20060;-49
2022/05/05 06:25:14;;;;;;;3.42;2.45;;;;;;;4.10;100.00;101639.81;5164804;27;20042;-46
2022/05/05 06:27:39;;;;;;;5.65;2.92;;;;;;;4.30;100.00;101634.81;5157732;27;20038;-48
2022/05/05 06:30:07;;;;;;;3.03;2.72;;;;;;;4.49;100.00;101636.78;5156474;27;20029;-47
2022/05/05 06:32:32;;;;;;;2.60;2.33;;;;;;;4.75;100.00;101646.03;5145083;27;20422;-49
2022/05/05 06:34:58;;;;;;;5.13;2.78;;;;;;;5.08;100.00;101625.81;5155415;27;20192;-48
2022/05/05 06:37:24;;;;;;;3.63;2.70;;;;;;;5.31;100.00;101631.78;5158477;27;20431;-50
2022/05/05 06:39:50;;;;;;;4.25;2.25;;;;;;;5.76;100.00;101635.94;5154965;27;20076;-48
2022/05/05 06:42:16;;;;;;;3.15;2.70;;;;;;;6.34;100.00;101633.53;5147718;27;20033;-47
2022/05/05 06:44:42;;;;;;;3.92;3.55;;;;;;;6.81;100.00;101638.19;5150957;27;20034;-50
2022/05/05 06:47:07;;;;;;;2.90;2.20;;;;;;;7.25;100.00;101646.50;5153648;27;20074;-49
2022/05/05 06:49:33;;;;;;;4.35;3.13;;;;;;;7.57;100.00;101647.00;5149043;27;20224;-46
2022/05/05 06:51:59;;;;;;;6.80;4.00;;;;;;;7.95;100.00;101647.84;5151483;27;20053;-46
2022/05/05 06:54:25;;;;;;;10.13;2.70;;;;;;;8.16;100.00;101641.47;5150954;27;20110;-50
2022/05/05 06:56:51;;;;;;;3.33;3.03;;;;;;;8.40;100.00;101652.38;5153253;27;20184;-49
2022/05/05 06:59:16;;;;;;;5.95;3.03;;;;;;;8.59;100.00;101647.94;5150970;27;20041;-48
2022/05/05 07:01:54;;;;;;;7.47;2.50;;;;;;;8.78;100.00;101653.13;5151450;27;20026;-51
2022/05/05 07:07:05;;;;;;;5.70;1.85;;;;;;;9.15;100.00;101646.81;5140038;27;20600;-51
2022/05/05 07:12:14;;;;;;;2.45;1.83;;;;;;;9.51;100.00;101638.81;5155931;27;20045;-48
2022/05/05 07:14:40;;;;;;;3.47;3.15;;;;;;;9.61;100.00;101623.66;5152277;27;20026;-50
2022/05/05 07:17:05;;;;;;;2.00;1.80;;;;;;;9.65;100.00;101614.38;5148934;27;20391;-50
2022/05/05 07:19:31;;;;;;;3.65;1.70;;;;;;;9.63;100.00;101619.03;5142132;27;20041;-46
2022/05/05 07:21:56;;;;;;;4.35;2.10;;;;;;;9.70;100.00;101625.34;5156858;27;20144;-48
2022/05/05 07:24:22;;;;;;;3.78;1.75;;;;;;;9.91;100.00;101642.66;5160094;27;20026;-49
2022/05/05 07:26:47;;;;;;;4.53;2.83;;;;;;;10.05;100.00;101628.84;5155713;27;20034;-48
2022/05/05 07:29:14;;;;;;;2.45;2.15;;;;;;;10.17;100.00;101630.22;5150780;27;20034;-54
2022/05/05 07:31:39;;;;;;;3.75;1.80;;;;;;;10.16;100.00;101639.13;5151261;27;20018;-53
2022/05/05 07:34:06;;;;;;;5.05;2.10;;;;;;;10.22;100.00;101637.66;5163294;27;20026;-51
2022/05/05 07:36:31;;;;;;;4.78;1.85;;;;;;;10.24;100.00;101631.22;5154623;27;20579;-50
2022/05/05 07:38:56;;;;;;;1.95;1.67;;;;;;;10.33;100.00;101644.56;5161280;27;20026;-49
2022/05/05 07:41:22;;;;;;;3.45;1.52;;;;;;;10.46;100.00;101640.44;5157139;27;20482;-53
2022/05/05 07:43:50;;;;;;;4.07;1.70;;;;;;;10.59;100.00;101645.28;5164611;27;20727;-50
2022/05/05 07:46:17;;;;;;;1.92;1.67;;;;;;;10.68;100.00;101641.63;5159504;27;20078;-50
2022/05/05 07:48:43;;;;;;;1.92;1.50;;;;;;;10.82;100.00;101645.47;5161555;27;20041;-48
2022/05/05 07:51:09;;;;;;;2.65;1.67;;;;;;;11.00;100.00;101647.97;5163069;27;20110;-48
2022/05/05 07:53:34;;;;;;;4.40;1.45;;;;;;;10.96;100.00;101638.69;5160692;27;20090;-50
2022/05/05 07:56:00;;;;;;;2.63;2.42;;;;;;;10.86;100.00;101640.66;5153362;27;20427;-48
2022/05/05 07:58:25;;;;;;;2.20;1.98;;;;;;;10.77;100.00;101636.34;5165144;27;20135;-47
2022/05/05 08:00:50;;;;;;;2.85;1.35;;;;;;;11.03;100.00;101634.38;5159710;27;20030;-49
2022/05/05 08:03:16;;;;;;;2.75;2.15;;;;;;;11.51;100.00;101650.44;5165705;27;20093;-47
2022/05/05 08:05:41;;;;;;;3.75;1.73;;;;;;;11.76;100.00;101628.13;5158202;27;20022;-50
2022/05/05 08:08:07;;;;;;;1.45;1.35;;;;;;;11.79;100.00;101632.25;5158044;27;20054;-49
2022/05/05 08:10:32;;;;;;;3.42;2.00;;;;;;;11.83;100.00;101630.94;5166218;27;20249;-52
2022/05/05 08:12:57;;;;;;;1.92;1.35;;;;;;;11.79;100.00;101641.06;5160897;27;20038;-50
2022/05/05 08:15:23;;;;;;;2.08;1.10;;;;;;;11.79;100.00;101650.88;5159248;27;20158;-51
2022/05/05 08:17:48;;;;;;;1.38;1.27;;;;;;;11.68;100.00;101645.91;5154250;27;20109;-48
2022/05/05 08:20:15;;;;;;;5.90;1.67;;;;;;;11.51;100.00;101656.59;5160413;27;20026;-51
2022/05/05 08:22:40;;;;;;;4.10;1.23;;;;;;;11.74;100.00;101650.53;5150842;27;20023;-48
2022/05/05 08:30:35;;;;;;;2.17;1.65;;;;;;;12.08;100.00;101641.50;5165281;27;20462;-59
2022/05/05 08:33:00;;;;;;;6.32;2.20;;;;;;;12.13;100.00;101645.31;5162940;27;20117;-51
2022/05/05 08:35:27;;;;;;;2.10;1.00;;;;;;;12.12;100.00;101648.13;5141736;27;20112;-46
2022/05/05 08:37:53;;;;;;;3.10;2.25;;;;;;;12.11;100.00;101651.81;5162925;27;20026;-48
2022/05/05 08:40:22;;;;;;;3.63;1.42;;;;;;;12.08;100.00;101646.81;5156898;27;20038;-48
2022/05/05 08:42:48;;;;;;;2.75;1.15;;;;;;;12.02;100.00;101644.84;5165148;27;20390;-48
2022/05/05 08:45:13;;;;;;;4.90;1.80;;;;;;;12.05;100.00;101658.63;5170650;27;20105;-49
2022/05/05 08:47:40;;;;;;;5.85;1.55;;;;;;;12.05;100.00;101653.31;5157455;27;20074;-49
2022/05/05 08:50:09;;;;;;;1.48;1.15;;;;;;;12.05;100.00;101652.47;5158987;27;20368;-50
2022/05/05 08:52:43;;;;;;;1.05;0.98;;;;;;;12.13;100.00;101657.75;5158225;27;21406;-49
2022/05/05 08:55:13;;;;;;;1.80;1.15;;;;;;;12.19;100.00;101649.13;5164074;27;20026;-51
2022/05/05 08:57:39;;;;;;;4.30;2.08;;;;;;;12.47;100.00;101652.13;5165744;27;20546;-51
2022/05/05 09:00:05;;;;;;;1.60;1.27;;;;;;;12.56;100.00;101660.88;5170017;27;20113;-49
2022/05/05 09:02:30;;;;;;;2.28;2.08;;;;;;;12.42;100.00;101650.00;5167588;27;20118;-48
2022/05/05 09:04:56;;;;;;;2.05;1.25;;;;;;;12.30;100.00;101656.69;5155145;27;20093;-48
2022/05/05 09:07:21;;;;;;;3.35;1.50;;;;;;;12.46;100.00;101657.63;5168404;27;20061;-47
2022/05/05 09:09:49;;;;;;;1.10;0.98;;;;;;;12.66;100.00;101651.66;5170152;27;20130;-50
2022/05/05 09:12:19;;;;;;;1.23;0.70;;;;;;;12.74;100.00;101652.63;5163028;27;20035;-50
2022/05/05 09:14:48;;;;;;;2.33;0.75;;;;;;;12.68;100.00;101648.84;5172335;27;20406;-51
2022/05/05 09:17:18;;;;;;;6.95;1.33;;;;;;;12.83;100.00;101652.41;5170179;27;20035;-50
2022/05/05 09:19:46;;;;;;;4.03;1.45;;;;;;;12.85;100.00;101658.34;5169831;27;20065;-49
2022/05/05 09:22:13;;;;;;;4.00;1.20;;;;;;;12.88;100.00;101657.16;5166527;27;20030;-49
2022/05/05 09:24:43;;;;;;;1.27;0.98;;;;;;;12.87;100.00;101652.84;5168624;27;20022;-48
2022/05/05 09:27:20;;;;;;;6.13;1.20;;;;;;;13.67;100.00;101657.69;5172289;27;20183;-49
2022/05/05 09:30:06;;;;;;;1.60;0.80;;;;;;;14.09;100.00;101645.53;5165509;27;20109;-52
2022/05/05 09:32:40;;;;;;;1.38;1.25;;;;;;;13.91;100.00;101651.28;5169413;27;20022;-50
2022/05/05 09:35:18;;;;;;;2.15;1.23;;;;;;;13.52;100.00;101659.50;5159204;27;20128;-50
2022/05/05 09:37:49;;;;;;;1.38;0.70;;;;;;;13.36;100.00;101657.00;5163381;27;20205;-54
2022/05/05 09:40:24;;;;;;;1.27;0.93;;;;;;;13.28;100.00;101672.03;5158906;27;20124;-51
2022/05/05 09:42:51;;;;;;;4.88;1.02;;;;;;;13.54;100.00;101652.16;5171975;27;20023;-47
2022/05/05 09:45:26;;;;;;;0.70;0.60;;;;;;;13.84;100.00;101653.00;5171246;27;20065;-47
2022/05/05 09:47:57;;;;;;;1.17;1.00;;;;;;;14.09;100.00;101652.69;5161572;27;20057;-48
2022/05/05 09:50:25;;;;;;;1.10;1.00;;;;;;;13.92;100.00;101641.41;5154972;27;20029;-50
2022/05/05 09:58:23;;;;;;;1.20;0.57;;;;;;;13.80;100.00;101649.03;5165813;27;20197;-49
2022/05/05 10:01:03;;;;;;;1.00;0.70;;;;;;;14.47;100.00;101639.22;5163011;27;20030;-53
2022/05/05 10:04:05;;;;;;;3.38;1.27;;;;;;;14.53;100.00;101642.00;5154492;27;20039;-52
2022/05/05 10:06:43;;;;;;;1.95;1.05;;;;;;;14.65;100.00;101649.50;5160510;27;20446;-50
2022/05/05 10:09:18;;;;;;;2.60;1.17;;;;;;;14.51;100.00;101635.16;5153440;27;20497;-51
2022/05/05 10:11:45;;;;;;;2.75;1.45;;;;;;;14.39;100.00;101648.16;5160805;27;20031;-51
2022/05/05 10:14:12;;;;;;;1.17;1.08;;;;;;;14.31;100.00;101646.44;5165527;27;20117;-58
2022/05/05 10:16:39;;;;;;;1.45;1.13;;;;;;;14.32;100.00;101634.72;5162137;27;20091;-48
2022/05/05 10:19:06;;;;;;;5.00;0.93;;;;;;;14.38;100.00;101635.84;5152504;27;20029;-49
2022/05/05 10:21:54;;;;;;;0.82;0.82;;;;;;;15.05;100.00;101640.03;5161132;27;20030;-55
2022/05/05 10:24:26;;;;;;;1.83;1.45;;;;;;;15.26;100.00;101649.88;5164163;27;20035;-50
2022/05/05 10:26:54;;;;;;;2.75;0.88;;;;;;;15.13;100.00;101644.41;5137330;27;20101;-48
2022/05/05 10:29:31;;;;;;;1.00;0.93;;;;;;;14.85;100.00;101647.84;5165355;27;20437;-46
2022/05/05 10:32:07;;;;;;;0.90;0.90;;;;;;;14.67;100.00;101645.63;5158939;27;20039;-53
2022/05/05 10:34:34;;;;;;;2.20;0.90;;;;;;;15.24;100.00;101654.56;5157072;27;20121;-48
2022/05/05 10:37:08;;;;;;;1.88;1.13;;;;;;;15.41;100.00;101642.59;5158227;27;20388;-48
2022/05/05 10:40:02;;;;;;;1.60;1.00;;;;;;;15.80;100.00;101643.03;5152517;27;20084;-50
2022/05/05 10:42:35;;;;;;;4.13;1.73;;;;;;;15.72;100.00;101645.88;5161575;27;20086;-49
2022/05/05 10:45:05;;;;;;;1.70;0.85;;;;;;;15.70;100.00;101651.44;5169569;27;20136;-51
2022/05/05 10:47:55;;;;;;;2.78;1.20;;;;;;;15.14;100.00;101644.22;5153479;27;20031;-47
2022/05/05 10:50:42;;;;;;;1.40;1.02;;;;;;;15.38;100.00;101658.97;5136001;27;20050;-52
2022/05/05 10:53:23;;;;;;;0.75;0.75;;;;;;;15.46;100.00;101645.50;5142091;27;20035;-53
2022/05/05 10:55:49;;;;;;;1.40;0.77;;;;;;;15.54;100.00;101643.66;5153154;27;20506;-50
2022/05/05 10:58:52;;;;;;;1.73;1.60;;;;;;;15.44;100.00;101647.53;5157514;27;20079;-55
2022/05/05 11:01:17;;;;;;;2.13;0.85;;;;;;;15.67;100.00;101641.09;5159032;27;20501;-53
2022/05/05 11:04:05;;;;;;;2.00;1.48;;;;;;;15.64;100.00;101641.47;5162202;27;20030;-48
2022/05/05 11:06:32;;;;;;;1.83;0.93;;;;;;;15.48;100.00;101648.78;5154193;27;20038;-46
2022/05/05 11:08:58;;;;;;;2.47;1.00;;;;;;;15.93;100.00;101651.16;5151560;27;20062;-47
2022/05/05 11:11:43;;;;;;;1.75;1.38;;;;;;;15.86;100.00;101661.81;5168272;27;20425;-54
2022/05/05 11:23:08;;;;;;;0.93;0.88;;;;;;;16.06;100.00;101658.44;5165788;27;20564;-47
2022/05/05 11:25:40;;;;;;;3.67;1.92;;;;;;;16.05;100.00;101660.25;5153923;27;20334;-52
2022/05/05 11:28:08;;;;;;;4.20;1.15;;;;;;;15.89;100.00;101648.03;5161461;27;20033;-52
2022/05/05 11:30:35;;;;;;;2.80;1.20;;;;;;;16.07;100.00;101649.38;5166729;27;20487;-49
2022/05/05 11:33:01;;;;;;;1.63;0.90;;;;;;;16.51;100.00;101656.13;5163609;27;20625;-50
2022/05/05 11:35:26;;;;;;;1.45;1.33;;;;;;;16.68;100.00;101651.22;5159084;27;20081;-48
2022/05/05 11:37:51;;;;;;;4.93;3.47;;;;;;;16.51;100.00;101650.75;5164316;27;20105;-55
2022/05/05 11:40:17;;;;;;;4.63;1.67;;;;;;;16.38;100.00;101642.69;5164454;27;20106;-49
2022/05/05 11:45:30;;;;;;;2.28;1.10;;;;;;;17.34;100.00;101645.91;5157343;27;20040;-51
2022/05/05 11:47:55;;;;;;;0.95;0.95;;;;;;;17.34;100.00;101643.25;5159654;27;20034;-50
2022/05/05 11:50:21;;;;;;;1.08;1.00;;;;;;;16.93;100.00;101651.47;5170201;27;20164;-52
2022/05/05 11:52:46;;;;;;;2.60;1.25;;;;;;;16.71;100.00;101642.78;5158962;27;20039;-50
2022/05/05 11:55:16;;;;;;;1.52;0.68;;;;;;;17.10;100.00;101642.03;5161620;27;20014;-53
2022/05/05 11:57:41;;;;;;;2.35;1.63;;;;;;;17.35;100.00;101633.38;5161796;27;20060;-50
2022/05/05 12:02:54;;;;;;;2.20;1.23;;;;;;;16.35;100.00;101631.34;5158709;27;20049;-50
2022/05/05 12:05:24;;;;;;;2.60;1.15;;;;;;;16.49;100.00;101639.41;5162362;27;20033;-49
2022/05/05 12:07:51;;;;;;;5.53;1.93;;;;;;;16.85;100.00;101632.94;5153212;27;20034;-51
2022/05/05 12:10:19;;;;;;;6.78;1.73;;;;;;;17.03;100.00;101637.69;5164543;27;20246;-54
2022/05/05 12:12:50;;;;;;;1.40;1.20;;;;;;;17.36;100.00;101624.28;5161997;27;20388;-46